sensor_id;sensor_type;location;lat;lon;timestamp;P1;durP1;ratioP1;P2;durP2;ratioP2
46755;SDS011;32506;52.826;-1.192;2022-08-19T00:01:53;0.70;;;0.40;;
46755;SDS011;32506;52.826;-1.192;2022-08-19T00:04:22;1.75;;;0.45;;
46755;SDS011;32506;52.826;-1.192;2022-08-19T00:06:50;0.45;;;0.30;;
46755;SDS011;32506;52.826;-1.192;2022-08-19T00:09:17;1.45;;;0.43;;
46755;SDS011;32506;52.826;-1.192;2022-08-19T00:11:44;0.82;;;0.40;;
46755;SDS011;32506;52.826;-1.192;2022-08-19T00:14:11;0.80;;;0.50;;
46755;SDS011;32506;52.826;-1.192;2022-08-19T00:16:40;0.77;;;0.43;;
46755;SDS011;32506;52.826;-1.192;2022-08-19T00:19:06;1.50;;;0.60;;
46755;SDS011;32506;52.826;-1.192;2022-08-19T00:21:33;1.00;;;0.50;;
46755;SDS011;32506;52.826;-1.192;2022-08-19T00:24:03;1.30;;;0.50;;
46755;SDS011;32506;52.826;-1.192;2022-08-19T00:26:29;0.45;;;0.28;;
46755;SDS011;32506;52.826;-1.192;2022-08-19T00:28:55;0.70;;;0.40;;
46755;SDS011;32506;52.826;-1.192;2022-08-19T00:31:21;0.55;;;0.43;;
46755;SDS011;32506;52.826;-1.192;2022-08-19T00:33:47;0.90;;;0.43;;
46755;SDS011;32506;52.826;-1.192;2022-08-19T00:36:15;1.60;;;0.50;;
46755;SDS011;32506;52.826;-1.192;2022-08-19T00:38:42;0.90;;;0.50;;
46755;SDS011;32506;52.826;-1.192;2022-08-19T00:41:09;0.60;;;0.40;;
46755;SDS011;32506;52.826;-1.192;2022-08-19T00:43:39;0.28;;;0.20;;
46755;SDS011;32506;52.826;-1.192;2022-08-19T00:46:06;0.98;;;0.50;;
46755;SDS011;32506;52.826;-1.192;2022-08-19T00:48:32;1.88;;;0.45;;
46755;SDS011;32506;52.826;-1.192;2022-08-19T00:50:58;1.73;;;0.70;;
46755;SDS011;32506;52.826;-1.192;2022-08-19T00:53:26;1.23;;;0.43;;
46755;SDS011;32506;52.826;-1.192;2022-08-19T00:55:55;1.77;;;0.70;;
46755;SDS011;32506;52.826;-1.192;2022-08-19T00:58:24;2.85;;;0.68;;
46755;SDS011;32506;52.826;-1.192;2022-08-19T01:00:53;1.65;;;0.50;;
46755;SDS011;32506;52.826;-1.192;2022-08-19T01:03:19;1.63;;;0.60;;
46755;SDS011;32506;52.826;-1.192;2022-08-19T01:05:46;1.05;;;0.70;;
46755;SDS011;32506;52.826;-1.192;2022-08-19T01:08:14;1.80;;;0.50;;
46755;SDS011;32506;52.826;-1.192;2022-08-19T01:10:43;0.70;;;0.50;;
46755;SDS011;32506;52.826;-1.192;2022-08-19T01:13:17;1.67;;;0.55;;
46755;SDS011;32506;52.826;-1.192;2022-08-19T01:15:46;1.33;;;0.55;;
46755;SDS011;32506;52.826;-1.192;2022-08-19T01:20:44;2.45;;;0.60;;
46755;SDS011;32506;52.826;-1.192;2022-08-19T01:23:10;2.67;;;0.60;;
46755;SDS011;32506;52.826;-1.192;2022-08-19T01:25:41;1.83;;;0.57;;
46755;SDS011;32506;52.826;-1.192;2022-08-19T01:28:17;2.17;;;0.50;;
46755;SDS011;32506;52.826;-1.192;2022-08-19T01:30:45;1.88;;;0.88;;
46755;SDS011;32506;52.826;-1.192;2022-08-19T01:33:11;0.80;;;0.60;;
46755;SDS011;32506;52.826;-1.192;2022-08-19T01:35:37;2.88;;;0.80;;
46755;SDS011;32506;52.826;-1.192;2022-08-19T01:38:04;2.65;;;0.70;;
46755;SDS011;32506;52.826;-1.192;2022-08-19T01:40:33;3.28;;;0.70;;
46755;SDS011;32506;52.826;-1.192;2022-08-19T01:43:00;2.20;;;0.80;;
46755;SDS011;32506;52.826;-1.192;2022-08-19T01:45:27;3.00;;;0.68;;
46755;SDS011;32506;52.826;-1.192;2022-08-19T01:47:54;2.47;;;0.60;;
46755;SDS011;32506;52.826;-1.192;2022-08-19T01:50:20;2.08;;;0.90;;
46755;SDS011;32506;52.826;-1.192;2022-08-19T01:52:46;5.90;;;0.80;;
46755;SDS011;32506;52.826;-1.192;2022-08-19T01:55:14;2.95;;;0.80;;
46755;SDS011;32506;52.826;-1.192;2022-08-19T01:57:43;2.13;;;0.75;;
46755;SDS011;32506;52.826;-1.192;2022-08-19T02:00:12;1.45;;;0.93;;
46755;SDS011;32506;52.826;-1.192;2022-08-19T02:02:40;1.60;;;0.60;;
46755;SDS011;32506;52.826;-1.192;2022-08-19T02:05:07;3.47;;;0.70;;
46755;SDS011;32506;52.826;-1.192;2022-08-19T02:07:33;3.92;;;0.80;;
46755;SDS011;32506;52.826;-1.192;2022-08-19T02:10:01;2.33;;;0.60;;
46755;SDS011;32506;52.826;-1.192;2022-08-19T02:12:28;2.08;;;0.93;;
46755;SDS011;32506;52.826;-1.192;2022-08-19T02:14:54;3.38;;;1.10;;
46755;SDS011;32506;52.826;-1.192;2022-08-19T02:17:19;2.28;;;0.75;;
46755;SDS011;32506;52.826;-1.192;2022-08-19T02:19:45;2.15;;;0.63;;
46755;SDS011;32506;52.826;-1.192;2022-08-19T02:22:11;1.35;;;0.70;;
46755;SDS011;32506;52.826;-1.192;2022-08-19T02:24:37;2.17;;;0.80;;
46755;SDS011;32506;52.826;-1.192;2022-08-19T02:27:04;3.05;;;1.00;;
46755;SDS011;32506;52.826;-1.192;2022-08-19T02:29:30;1.65;;;0.70;;
46755;SDS011;32506;52.826;-1.192;2022-08-19T02:31:56;2.03;;;0.82;;
46755;SDS011;32506;52.826;-1.192;2022-08-19T02:34:22;2.38;;;0.80;;
46755;SDS011;32506;52.826;-1.192;2022-08-19T02:36:47;2.08;;;0.70;;
46755;SDS011;32506;52.826;-1.192;2022-08-19T02:39:13;1.13;;;0.70;;
46755;SDS011;32506;52.826;-1.192;2022-08-19T02:41:38;1.40;;;0.60;;
46755;SDS011;32506;52.826;-1.192;2022-08-19T02:44:04;2.53;;;0.93;;
46755;SDS011;32506;52.826;-1.192;2022-08-19T02:46:30;2.03;;;0.85;;
46755;SDS011;32506;52.826;-1.192;2022-08-19T02:49:01;2.65;;;1.00;;
46755;SDS011;32506;52.826;-1.192;2022-08-19T02:51:37;1.63;;;0.70;;
46755;SDS011;32506;52.826;-1.192;2022-08-19T02:54:06;2.65;;;0.90;;
46755;SDS011;32506;52.826;-1.192;2022-08-19T02:56:34;2.03;;;0.90;;
46755;SDS011;32506;52.826;-1.192;2022-08-19T02:59:01;2.00;;;1.20;;
46755;SDS011;32506;52.826;-1.192;2022-08-19T03:01:28;3.50;;;0.90;;
46755;SDS011;32506;52.826;-1.192;2022-08-19T03:03:56;1.90;;;0.82;;
46755;SDS011;32506;52.826;-1.192;2022-08-19T03:06:24;2.35;;;1.00;;
46755;SDS011;32506;52.826;-1.192;2022-08-19T03:08:50;1.58;;;0.75;;
46755;SDS011;32506;52.826;-1.192;2022-08-19T03:11:23;4.10;;;1.30;;
46755;SDS011;32506;52.826;-1.192;2022-08-19T03:13:55;7.70;;;2.88;;
46755;SDS011;32506;52.826;-1.192;2022-08-19T03:16:23;4.13;;;1.30;;
46755;SDS011;32506;52.826;-1.192;2022-08-19T03:18:50;5.55;;;1.15;;
46755;SDS011;32506;52.826;-1.192;2022-08-19T03:21:22;4.57;;;1.25;;
46755;SDS011;32506;52.826;-1.192;2022-08-19T03:23:50;2.80;;;0.93;;
46755;SDS011;32506;52.826;-1.192;2022-08-19T03:26:18;4.95;;;1.23;;
46755;SDS011;32506;52.826;-1.192;2022-08-19T03:28:44;3.42;;;1.10;;
46755;SDS011;32506;52.826;-1.192;2022-08-19T03:31:15;6.38;;;1.38;;
46755;SDS011;32506;52.826;-1.192;2022-08-19T03:33:43;5.68;;;1.40;;
46755;SDS011;32506;52.826;-1.192;2022-08-19T03:36:13;5.15;;;1.25;;
46755;SDS011;32506;52.826;-1.192;2022-08-19T03:38:45;3.78;;;1.20;;
46755;SDS011;32506;52.826;-1.192;2022-08-19T03:41:19;3.83;;;1.00;;
46755;SDS011;32506;52.826;-1.192;2022-08-19T03:43:47;3.45;;;1.17;;
46755;SDS011;32506;52.826;-1.192;2022-08-19T03:46:14;4.70;;;0.98;;
46755;SDS011;32506;52.826;-1.192;2022-08-19T03:48:42;5.18;;;1.40;;
46755;SDS011;32506;52.826;-1.192;2022-08-19T03:51:18;5.70;;;1.40;;
46755;SDS011;32506;52.826;-1.192;2022-08-19T03:53:56;5.57;;;1.52;;
46755;SDS011;32506;52.826;-1.192;2022-08-19T03:56:23;5.13;;;0.98;;
46755;SDS011;32506;52.826;-1.192;2022-08-19T03:58:50;6.43;;;1.15;;
46755;SDS011;32506;52.826;-1.192;2022-08-19T04:01:18;5.97;;;1.05;;
46755;SDS011;32506;52.826;-1.192;2022-08-19T04:03:46;3.35;;;1.00;;
46755;SDS011;32506;52.826;-1.192;2022-08-19T04:06:19;6.30;;;1.20;;
46755;SDS011;32506;52.826;-1.192;2022-08-19T04:08:48;6.78;;;1.33;;
46755;SDS011;32506;52.826;-1.192;2022-08-19T04:11:21;5.88;;;1.40;;
46755;SDS011;32506;52.826;-1.192;2022-08-19T04:13:49;4.75;;;1.25;;
46755;SDS011;32506;52.826;-1.192;2022-08-19T04:16:19;4.40;;;1.17;;
46755;SDS011;32506;52.826;-1.192;2022-08-19T04:18:46;8.88;;;1.55;;
46755;SDS011;32506;52.826;-1.192;2022-08-19T04:21:17;5.75;;;1.60;;
46755;SDS011;32506;52.826;-1.192;2022-08-19T04:23:44;7.70;;;1.20;;
46755;SDS011;32506;52.826;-1.192;2022-08-19T04:26:14;4.05;;;1.10;;
46755;SDS011;32506;52.826;-1.192;2022-08-19T04:28:42;6.13;;;1.13;;
46755;SDS011;32506;52.826;-1.192;2022-08-19T04:31:12;5.10;;;1.20;;
46755;SDS011;32506;52.826;-1.192;2022-08-19T04:33:42;7.28;;;1.25;;
46755;SDS011;32506;52.826;-1.192;2022-08-19T04:36:14;9.40;;;1.60;;
46755;SDS011;32506;52.826;-1.192;2022-08-19T04:38:48;4.38;;;1.05;;
46755;SDS011;32506;52.826;-1.192;2022-08-19T04:41:14;4.60;;;1.63;;
46755;SDS011;32506;52.826;-1.192;2022-08-19T04:43:58;7.47;;;1.23;;
46755;SDS011;32506;52.826;-1.192;2022-08-19T04:46:24;7.65;;;1.58;;
46755;SDS011;32506;52.826;-1.192;2022-08-19T04:48:50;5.80;;;1.15;;
46755;SDS011;32506;52.826;-1.192;2022-08-19T04:51:15;8.00;;;1.90;;
46755;SDS011;32506;52.826;-1.192;2022-08-19T04:53:42;3.95;;;1.15;;
46755;SDS011;32506;52.826;-1.192;2022-08-19T04:56:09;3.95;;;1.08;;
46755;SDS011;32506;52.826;-1.192;2022-08-19T04:58:37;6.65;;;1.20;;
46755;SDS011;32506;52.826;-1.192;2022-08-19T05:01:06;5.65;;;1.15;;
46755;SDS011;32506;52.826;-1.192;2022-08-19T05:03:34;4.90;;;1.35;;
46755;SDS011;32506;52.826;-1.192;2022-08-19T05:06:05;5.70;;;1.27;;
46755;SDS011;32506;52.826;-1.192;2022-08-19T05:08:36;5.28;;;1.10;;
46755;SDS011;32506;52.826;-1.192;2022-08-19T05:11:07;9.52;;;1.48;;
46755;SDS011;32506;52.826;-1.192;2022-08-19T05:13:37;5.53;;;1.05;;
46755;SDS011;32506;52.826;-1.192;2022-08-19T05:16:03;5.07;;;0.93;;
46755;SDS011;32506;52.826;-1.192;2022-08-19T05:18:29;5.68;;;1.60;;
46755;SDS011;32506;52.826;-1.192;2022-08-19T05:21:15;5.18;;;1.00;;
46755;SDS011;32506;52.826;-1.192;2022-08-19T05:24:01;6.78;;;1.40;;
46755;SDS011;32506;52.826;-1.192;2022-08-19T05:26:27;4.85;;;1.52;;
46755;SDS011;32506;52.826;-1.192;2022-08-19T05:28:53;8.00;;;1.17;;
46755;SDS011;32506;52.826;-1.192;2022-08-19T05:31:19;5.80;;;1.38;;
46755;SDS011;32506;52.826;-1.192;2022-08-19T05:33:45;5.18;;;1.60;;
46755;SDS011;32506;52.826;-1.192;2022-08-19T05:36:10;5.78;;;1.10;;
46755;SDS011;32506;52.826;-1.192;2022-08-19T05:38:36;5.57;;;1.40;;
46755;SDS011;32506;52.826;-1.192;2022-08-19T05:41:06;4.35;;;1.25;;
46755;SDS011;32506;52.826;-1.192;2022-08-19T05:43:33;3.45;;;0.88;;
46755;SDS011;32506;52.826;-1.192;2022-08-19T05:45:58;3.85;;;0.98;;
46755;SDS011;32506;52.826;-1.192;2022-08-19T05:48:24;5.18;;;1.17;;
46755;SDS011;32506;52.826;-1.192;2022-08-19T05:50:51;8.02;;;1.08;;
46755;SDS011;32506;52.826;-1.192;2022-08-19T05:53:17;5.80;;;1.17;;
46755;SDS011;32506;52.826;-1.192;2022-08-19T05:55:43;7.63;;;1.27;;
46755;SDS011;32506;52.826;-1.192;2022-08-19T05:58:09;8.98;;;1.40;;
46755;SDS011;32506;52.826;-1.192;2022-08-19T06:00:35;4.78;;;1.08;;
46755;SDS011;32506;52.826;-1.192;2022-08-19T06:03:01;7.85;;;1.83;;
46755;SDS011;32506;52.826;-1.192;2022-08-19T06:05:29;5.38;;;1.20;;
46755;SDS011;32506;52.826;-1.192;2022-08-19T06:07:55;6.07;;;1.60;;
46755;SDS011;32506;52.826;-1.192;2022-08-19T06:10:21;5.10;;;1.20;;
46755;SDS011;32506;52.826;-1.192;2022-08-19T06:12:47;4.57;;;1.23;;
46755;SDS011;32506;52.826;-1.192;2022-08-19T06:15:13;9.25;;;1.23;;
46755;SDS011;32506;52.826;-1.192;2022-08-19T06:17:41;5.55;;;1.48;;
46755;SDS011;32506;52.826;-1.192;2022-08-19T06:20:10;4.50;;;1.33;;
46755;SDS011;32506;52.826;-1.192;2022-08-19T06:22:39;4.57;;;1.05;;
46755;SDS011;32506;52.826;-1.192;2022-08-19T06:25:12;8.90;;;1.30;;
46755;SDS011;32506;52.826;-1.192;2022-08-19T06:27:39;5.25;;;1.13;;
46755;SDS011;32506;52.826;-1.192;2022-08-19T06:30:05;7.63;;;1.10;;
46755;SDS011;32506;52.826;-1.192;2022-08-19T06:32:31;4.80;;;1.20;;
46755;SDS011;32506;52.826;-1.192;2022-08-19T06:34:57;6.30;;;1.10;;
46755;SDS011;32506;52.826;-1.192;2022-08-19T06:37:22;5.93;;;1.77;;
46755;SDS011;32506;52.826;-1.192;2022-08-19T06:39:48;7.85;;;1.55;;
46755;SDS011;32506;52.826;-1.192;2022-08-19T06:42:14;6.32;;;1.15;;
46755;SDS011;32506;52.826;-1.192;2022-08-19T06:44:44;5.53;;;1.20;;
46755;SDS011;32506;52.826;-1.192;2022-08-19T06:47:13;7.50;;;1.63;;
46755;SDS011;32506;52.826;-1.192;2022-08-19T06:49:41;5.47;;;1.10;;
46755;SDS011;32506;52.826;-1.192;2022-08-19T06:52:08;9.77;;;1.55;;
46755;SDS011;32506;52.826;-1.192;2022-08-19T06:54:37;5.40;;;1.17;;
46755;SDS011;32506;52.826;-1.192;2022-08-19T06:57:04;11.13;;;1.60;;
46755;SDS011;32506;52.826;-1.192;2022-08-19T06:59:32;7.68;;;1.50;;
46755;SDS011;32506;52.826;-1.192;2022-08-19T07:01:58;7.35;;;1.20;;
46755;SDS011;32506;52.826;-1.192;2022-08-19T07:04:33;10.55;;;1.67;;
46755;SDS011;32506;52.826;-1.192;2022-08-19T07:07:03;9.25;;;1.60;;
46755;SDS011;32506;52.826;-1.192;2022-08-19T07:09:35;8.43;;;1.45;;
46755;SDS011;32506;52.826;-1.192;2022-08-19T07:12:06;9.30;;;1.48;;
46755;SDS011;32506;52.826;-1.192;2022-08-19T07:14:38;9.02;;;1.50;;
46755;SDS011;32506;52.826;-1.192;2022-08-19T07:17:05;4.90;;;1.08;;
46755;SDS011;32506;52.826;-1.192;2022-08-19T07:19:32;6.93;;;1.67;;
46755;SDS011;32506;52.826;-1.192;2022-08-19T07:22:00;6.95;;;1.48;;
46755;SDS011;32506;52.826;-1.192;2022-08-19T07:24:27;6.25;;;1.50;;
46755;SDS011;32506;52.826;-1.192;2022-08-19T07:26:54;5.85;;;1.15;;
46755;SDS011;32506;52.826;-1.192;2022-08-19T07:29:21;10.20;;;1.60;;
46755;SDS011;32506;52.826;-1.192;2022-08-19T07:31:49;10.50;;;2.00;;
46755;SDS011;32506;52.826;-1.192;2022-08-19T07:34:17;6.05;;;1.15;;
46755;SDS011;32506;52.826;-1.192;2022-08-19T07:36:44;8.45;;;1.63;;
46755;SDS011;32506;52.826;-1.192;2022-08-19T07:39:12;10.27;;;1.85;;
46755;SDS011;32506;52.826;-1.192;2022-08-19T07:41:40;9.23;;;1.60;;
46755;SDS011;32506;52.826;-1.192;2022-08-19T07:44:07;10.38;;;2.35;;
46755;SDS011;32506;52.826;-1.192;2022-08-19T07:46:34;6.35;;;1.70;;
46755;SDS011;32506;52.826;-1.192;2022-08-19T07:49:02;9.95;;;1.90;;
46755;SDS011;32506;52.826;-1.192;2022-08-19T07:51:29;8.25;;;1.40;;
46755;SDS011;32506;52.826;-1.192;2022-08-19T07:53:55;9.73;;;1.50;;
46755;SDS011;32506;52.826;-1.192;2022-08-19T07:56:21;7.03;;;1.35;;
46755;SDS011;32506;52.826;-1.192;2022-08-19T07:58:49;6.82;;;1.15;;
46755;SDS011;32506;52.826;-1.192;2022-08-19T08:01:18;9.23;;;2.38;;
46755;SDS011;32506;52.826;-1.192;2022-08-19T08:03:47;4.60;;;1.50;;
46755;SDS011;32506;52.826;-1.192;2022-08-19T08:06:32;8.13;;;1.70;;
46755;SDS011;32506;52.826;-1.192;2022-08-19T08:09:17;9.40;;;2.20;;
46755;SDS011;32506;52.826;-1.192;2022-08-19T08:11:53;9.73;;;1.42;;
46755;SDS011;32506;52.826;-1.192;2022-08-19T08:14:21;6.63;;;1.50;;
46755;SDS011;32506;52.826;-1.192;2022-08-19T08:16:48;7.75;;;2.00;;
46755;SDS011;32506;52.826;-1.192;2022-08-19T08:19:15;7.00;;;1.52;;
46755;SDS011;32506;52.826;-1.192;2022-08-19T08:21:41;9.32;;;1.40;;
46755;SDS011;32506;52.826;-1.192;2022-08-19T08:24:06;9.55;;;1.80;;
46755;SDS011;32506;52.826;-1.192;2022-08-19T08:26:32;5.35;;;1.30;;
46755;SDS011;32506;52.826;-1.192;2022-08-19T08:28:57;8.98;;;1.98;;
46755;SDS011;32506;52.826;-1.192;2022-08-19T08:31:23;5.97;;;1.30;;
46755;SDS011;32506;52.826;-1.192;2022-08-19T08:33:49;7.53;;;1.42;;
46755;SDS011;32506;52.826;-1.192;2022-08-19T08:36:15;7.32;;;1.70;;
46755;SDS011;32506;52.826;-1.192;2022-08-19T08:38:41;4.65;;;1.10;;
46755;SDS011;32506;52.826;-1.192;2022-08-19T08:43:54;4.97;;;1.10;;
46755;SDS011;32506;52.826;-1.192;2022-08-19T08:46:55;8.27;;;1.50;;
46755;SDS011;32506;52.826;-1.192;2022-08-19T08:51:54;7.75;;;1.55;;
46755;SDS011;32506;52.826;-1.192;2022-08-19T08:54:28;6.03;;;1.45;;
46755;SDS011;32506;52.826;-1.192;2022-08-19T08:56:59;5.18;;;1.50;;
46755;SDS011;32506;52.826;-1.192;2022-08-19T08:59:29;9.32;;;1.35;;
46755;SDS011;32506;52.826;-1.192;2022-08-19T09:01:59;7.78;;;1.40;;
46755;SDS011;32506;52.826;-1.192;2022-08-19T09:04:25;7.20;;;1.65;;
46755;SDS011;32506;52.826;-1.192;2022-08-19T09:06:54;6.25;;;1.25;;
46755;SDS011;32506;52.826;-1.192;2022-08-19T09:09:38;7.93;;;1.50;;
46755;SDS011;32506;52.826;-1.192;2022-08-19T09:12:08;5.82;;;1.05;;
46755;SDS011;32506;52.826;-1.192;2022-08-19T09:15:06;5.63;;;1.65;;
46755;SDS011;32506;52.826;-1.192;2022-08-19T09:17:34;8.60;;;1.75;;
46755;SDS011;32506;52.826;-1.192;2022-08-19T09:20:11;8.05;;;1.23;;
46755;SDS011;32506;52.826;-1.192;2022-08-19T09:22:41;11.27;;;2.67;;
46755;SDS011;32506;52.826;-1.192;2022-08-19T09:25:13;5.65;;;1.50;;
46755;SDS011;32506;52.826;-1.192;2022-08-19T09:27:41;5.63;;;1.30;;
46755;SDS011;32506;52.826;-1.192;2022-08-19T09:30:08;5.70;;;1.10;;
46755;SDS011;32506;52.826;-1.192;2022-08-19T09:32:35;7.57;;;1.10;;
46755;SDS011;32506;52.826;-1.192;2022-08-19T09:35:01;6.57;;;1.17;;
46755;SDS011;32506;52.826;-1.192;2022-08-19T09:37:26;7.18;;;1.35;;
46755;SDS011;32506;52.826;-1.192;2022-08-19T09:39:52;6.00;;;1.45;;
46755;SDS011;32506;52.826;-1.192;2022-08-19T09:42:18;7.53;;;1.25;;
46755;SDS011;32506;52.826;-1.192;2022-08-19T09:44:44;5.28;;;1.10;;
46755;SDS011;32506;52.826;-1.192;2022-08-19T09:47:10;6.15;;;1.60;;
46755;SDS011;32506;52.826;-1.192;2022-08-19T09:49:37;6.82;;;1.10;;
46755;SDS011;32506;52.826;-1.192;2022-08-19T09:52:04;7.10;;;1.38;;
46755;SDS011;32506;52.826;-1.192;2022-08-19T09:54:31;10.15;;;1.35;;
46755;SDS011;32506;52.826;-1.192;2022-08-19T09:56:57;4.93;;;1.48;;
46755;SDS011;32506;52.826;-1.192;2022-08-19T09:59:25;5.57;;;1.50;;
46755;SDS011;32506;52.826;-1.192;2022-08-19T10:01:51;6.90;;;1.42;;
46755;SDS011;32506;52.826;-1.192;2022-08-19T10:04:17;5.75;;;1.23;;
46755;SDS011;32506;52.826;-1.192;2022-08-19T10:06:42;6.07;;;1.25;;
46755;SDS011;32506;52.826;-1.192;2022-08-19T10:09:09;4.55;;;1.08;;
46755;SDS011;32506;52.826;-1.192;2022-08-19T10:11:35;8.35;;;1.63;;
46755;SDS011;32506;52.826;-1.192;2022-08-19T10:14:04;7.57;;;1.88;;
46755;SDS011;32506;52.826;-1.192;2022-08-19T10:16:33;6.88;;;1.60;;
46755;SDS011;32506;52.826;-1.192;2022-08-19T10:19:00;9.38;;;1.48;;
46755;SDS011;32506;52.826;-1.192;2022-08-19T10:21:28;6.97;;;1.67;;
46755;SDS011;32506;52.826;-1.192;2022-08-19T10:23:56;6.28;;;1.35;;
46755;SDS011;32506;52.826;-1.192;2022-08-19T10:26:24;5.15;;;1.27;;
46755;SDS011;32506;52.826;-1.192;2022-08-19T10:28:55;5.30;;;1.58;;
46755;SDS011;32506;52.826;-1.192;2022-08-19T10:31:22;6.68;;;1.52;;
46755;SDS011;32506;52.826;-1.192;2022-08-19T10:33:50;8.43;;;1.70;;
46755;SDS011;32506;52.826;-1.192;2022-08-19T10:36:20;7.88;;;1.40;;
46755;SDS011;32506;52.826;-1.192;2022-08-19T10:38:52;5.78;;;1.65;;
46755;SDS011;32506;52.826;-1.192;2022-08-19T10:41:20;7.57;;;1.50;;
46755;SDS011;32506;52.826;-1.192;2022-08-19T10:43:50;6.88;;;1.58;;
46755;SDS011;32506;52.826;-1.192;2022-08-19T10:46:17;8.32;;;1.42;;
46755;SDS011;32506;52.826;-1.192;2022-08-19T10:48:44;9.02;;;1.60;;
46755;SDS011;32506;52.826;-1.192;2022-08-19T10:51:09;8.93;;;1.55;;
46755;SDS011;32506;52.826;-1.192;2022-08-19T10:53:54;5.03;;;1.20;;
46755;SDS011;32506;52.826;-1.192;2022-08-19T10:56:20;8.00;;;1.52;;
46755;SDS011;32506;52.826;-1.192;2022-08-19T10:59:05;3.90;;;0.93;;
46755;SDS011;32506;52.826;-1.192;2022-08-19T11:01:31;5.30;;;1.63;;
46755;SDS011;32506;52.826;-1.192;2022-08-19T11:03:59;4.55;;;1.05;;
46755;SDS011;32506;52.826;-1.192;2022-08-19T11:06:26;4.43;;;1.30;;
46755;SDS011;32506;52.826;-1.192;2022-08-19T11:08:52;3.60;;;1.02;;
46755;SDS011;32506;52.826;-1.192;2022-08-19T11:11:19;5.72;;;1.17;;
46755;SDS011;32506;52.826;-1.192;2022-08-19T11:13:47;6.00;;;1.42;;
46755;SDS011;32506;52.826;-1.192;2022-08-19T11:16:22;8.38;;;1.67;;
46755;SDS011;32506;52.826;-1.192;2022-08-19T11:18:52;5.15;;;1.15;;
46755;SDS011;32506;52.826;-1.192;2022-08-19T11:21:24;5.75;;;1.65;;
46755;SDS011;32506;52.826;-1.192;2022-08-19T11:23:53;6.18;;;1.23;;
46755;SDS011;32506;52.826;-1.192;2022-08-19T11:26:21;5.78;;;1.00;;
46755;SDS011;32506;52.826;-1.192;2022-08-19T11:28:47;3.33;;;0.90;;
46755;SDS011;32506;52.826;-1.192;2022-08-19T11:31:17;5.15;;;1.23;;
46755;SDS011;32506;52.826;-1.192;2022-08-19T11:36:11;3.80;;;1.00;;
46755;SDS011;32506;52.826;-1.192;2022-08-19T11:38:37;6.10;;;1.30;;
46755;SDS011;32506;52.826;-1.192;2022-08-19T11:41:04;6.50;;;1.73;;
46755;SDS011;32506;52.826;-1.192;2022-08-19T11:43:32;7.53;;;1.38;;
46755;SDS011;32506;52.826;-1.192;2022-08-19T11:45:59;5.05;;;1.00;;
46755;SDS011;32506;52.826;-1.192;2022-08-19T11:48:28;6.68;;;1.30;;
46755;SDS011;32506;52.826;-1.192;2022-08-19T11:50:53;4.50;;;1.30;;
46755;SDS011;32506;52.826;-1.192;2022-08-19T11:53:22;6.30;;;1.40;;
46755;SDS011;32506;52.826;-1.192;2022-08-19T11:55:49;5.78;;;1.50;;
46755;SDS011;32506;52.826;-1.192;2022-08-19T11:58:24;4.45;;;1.20;;
46755;SDS011;32506;52.826;-1.192;2022-08-19T12:00:50;5.63;;;1.40;;
46755;SDS011;32506;52.826;-1.192;2022-08-19T12:03:16;6.97;;;1.42;;
46755;SDS011;32506;52.826;-1.192;2022-08-19T12:05:43;3.15;;;0.98;;
46755;SDS011;32506;52.826;-1.192;2022-08-19T12:08:09;6.82;;;1.52;;
46755;SDS011;32506;52.826;-1.192;2022-08-19T12:10:34;5.40;;;1.45;;
46755;SDS011;32506;52.826;-1.192;2022-08-19T12:13:00;4.22;;;1.00;;
46755;SDS011;32506;52.826;-1.192;2022-08-19T12:15:26;7.05;;;1.20;;
46755;SDS011;32506;52.826;-1.192;2022-08-19T12:17:54;5.93;;;1.48;;
46755;SDS011;32506;52.826;-1.192;2022-08-19T12:20:21;3.92;;;1.17;;
46755;SDS011;32506;52.826;-1.192;2022-08-19T12:22:48;3.35;;;1.00;;
46755;SDS011;32506;52.826;-1.192;2022-08-19T12:25:14;4.07;;;0.82;;
46755;SDS011;32506;52.826;-1.192;2022-08-19T12:27:39;4.82;;;1.00;;
46755;SDS011;32506;52.826;-1.192;2022-08-19T12:30:06;4.45;;;1.13;;
46755;SDS011;32506;52.826;-1.192;2022-08-19T12:32:33;5.13;;;0.85;;
46755;SDS011;32506;52.826;-1.192;2022-08-19T12:34:59;5.57;;;1.30;;
46755;SDS011;32506;52.826;-1.192;2022-08-19T12:37:24;2.92;;;0.70;;
46755;SDS011;32506;52.826;-1.192;2022-08-19T12:39:50;5.68;;;1.02;;
46755;SDS011;32506;52.826;-1.192;2022-08-19T12:42:16;3.00;;;0.70;;
46755;SDS011;32506;52.826;-1.192;2022-08-19T12:44:43;4.68;;;0.90;;
46755;SDS011;32506;52.826;-1.192;2022-08-19T12:47:10;5.80;;;1.55;;
46755;SDS011;32506;52.826;-1.192;2022-08-19T12:49:38;5.28;;;0.70;;
46755;SDS011;32506;52.826;-1.192;2022-08-19T12:52:05;4.32;;;0.73;;
46755;SDS011;32506;52.826;-1.192;2022-08-19T12:54:33;4.20;;;0.73;;
46755;SDS011;32506;52.826;-1.192;2022-08-19T12:56:59;6.28;;;1.48;;
46755;SDS011;32506;52.826;-1.192;2022-08-19T12:59:28;4.32;;;0.82;;
46755;SDS011;32506;52.826;-1.192;2022-08-19T13:01:53;4.43;;;1.00;;
46755;SDS011;32506;52.826;-1.192;2022-08-19T13:04:19;4.22;;;1.17;;
46755;SDS011;32506;52.826;-1.192;2022-08-19T13:06:44;4.68;;;1.27;;
46755;SDS011;32506;52.826;-1.192;2022-08-19T13:09:10;4.43;;;0.88;;
46755;SDS011;32506;52.826;-1.192;2022-08-19T13:11:36;4.97;;;1.20;;
46755;SDS011;32506;52.826;-1.192;2022-08-19T13:14:02;4.82;;;1.10;;
46755;SDS011;32506;52.826;-1.192;2022-08-19T13:16:29;4.43;;;0.75;;
46755;SDS011;32506;52.826;-1.192;2022-08-19T13:18:55;4.95;;;1.13;;
46755;SDS011;32506;52.826;-1.192;2022-08-19T13:21:23;2.30;;;0.93;;
46755;SDS011;32506;52.826;-1.192;2022-08-19T13:23:50;4.60;;;1.23;;
46755;SDS011;32506;52.826;-1.192;2022-08-19T13:26:19;5.25;;;0.70;;
46755;SDS011;32506;52.826;-1.192;2022-08-19T13:28:45;4.25;;;1.10;;
46755;SDS011;32506;52.826;-1.192;2022-08-19T13:31:30;4.43;;;0.80;;
46755;SDS011;32506;52.826;-1.192;2022-08-19T13:34:18;4.88;;;0.80;;
46755;SDS011;32506;52.826;-1.192;2022-08-19T13:36:51;2.58;;;0.70;;
46755;SDS011;32506;52.826;-1.192;2022-08-19T13:39:17;3.47;;;1.35;;
46755;SDS011;32506;52.826;-1.192;2022-08-19T13:41:45;3.60;;;0.70;;
46755;SDS011;32506;52.826;-1.192;2022-08-19T13:44:15;7.50;;;1.38;;
46755;SDS011;32506;52.826;-1.192;2022-08-19T13:46:43;5.05;;;1.23;;
46755;SDS011;32506;52.826;-1.192;2022-08-19T13:49:12;3.88;;;0.90;;
46755;SDS011;32506;52.826;-1.192;2022-08-19T13:51:40;6.13;;;1.08;;
46755;SDS011;32506;52.826;-1.192;2022-08-19T13:54:07;4.20;;;0.98;;
46755;SDS011;32506;52.826;-1.192;2022-08-19T13:56:33;4.63;;;0.80;;
46755;SDS011;32506;52.826;-1.192;2022-08-19T13:59:00;2.30;;;0.73;;
46755;SDS011;32506;52.826;-1.192;2022-08-19T14:01:26;2.47;;;0.70;;
46755;SDS011;32506;52.826;-1.192;2022-08-19T14:03:52;3.33;;;0.50;;
46755;SDS011;32506;52.826;-1.192;2022-08-19T14:06:18;3.33;;;0.90;;
46755;SDS011;32506;52.826;-1.192;2022-08-19T14:08:46;3.28;;;0.68;;
46755;SDS011;32506;52.826;-1.192;2022-08-19T14:11:11;4.70;;;0.88;;
46755;SDS011;32506;52.826;-1.192;2022-08-19T14:13:37;3.55;;;0.77;;
46755;SDS011;32506;52.826;-1.192;2022-08-19T14:16:09;3.00;;;0.95;;
46755;SDS011;32506;52.826;-1.192;2022-08-19T14:18:36;1.92;;;0.77;;
46755;SDS011;32506;52.826;-1.192;2022-08-19T14:21:02;4.40;;;0.90;;
46755;SDS011;32506;52.826;-1.192;2022-08-19T14:23:29;2.58;;;0.55;;
46755;SDS011;32506;52.826;-1.192;2022-08-19T14:26:02;4.15;;;0.90;;
46755;SDS011;32506;52.826;-1.192;2022-08-19T14:28:29;4.85;;;0.90;;
46755;SDS011;32506;52.826;-1.192;2022-08-19T14:30:55;1.80;;;0.50;;
46755;SDS011;32506;52.826;-1.192;2022-08-19T14:33:20;3.05;;;0.63;;
46755;SDS011;32506;52.826;-1.192;2022-08-19T14:35:46;3.60;;;1.00;;
46755;SDS011;32506;52.826;-1.192;2022-08-19T14:38:15;3.22;;;0.70;;
46755;SDS011;32506;52.826;-1.192;2022-08-19T14:40:42;4.28;;;0.68;;
46755;SDS011;32506;52.826;-1.192;2022-08-19T14:43:07;3.75;;;0.73;;
46755;SDS011;32506;52.826;-1.192;2022-08-19T14:45:34;3.00;;;0.52;;
46755;SDS011;32506;52.826;-1.192;2022-08-19T14:48:01;2.55;;;0.60;;
46755;SDS011;32506;52.826;-1.192;2022-08-19T14:50:27;4.25;;;0.52;;